sensor_id;sensor_type;location;lat;lon;timestamp;temperature;humidity
72128;DHT22;60000;51.030;7.024;2022-08-01T00:01:53;20.83;81.38
72128;DHT22;60000;51.030;7.024;2022-08-01T00:04:18;20.80;81.88
72128;DHT22;60000;51.030;7.024;2022-08-01T00:06:43;20.73;82.08
72128;DHT22;60000;51.030;7.024;2022-08-01T00:09:09;20.66;82.40
72128;DHT22;60000;51.030;7.024;2022-08-01T00:11:34;20.59;82.56
72128;DHT22;60000;51.030;7.024;2022-08-01T00:13:59;20.54;82.92
72128;DHT22;60000;51.030;7.024;2022-08-01T00:16:25;20.47;83.06
72128;DHT22;60000;51.030;7.024;2022-08-01T00:18:51;20.43;83.16
72128;DHT22;60000;51.030;7.024;2022-08-01T00:21:17;20.40;83.30
72128;DHT22;60000;51.030;7.024;2022-08-01T00:23:42;20.40;83.79
72128;DHT22;60000;51.030;7.024;2022-08-01T00:26:10;20.37;83.78
72128;DHT22;60000;51.030;7.024;2022-08-01T00:28:35;20.36;84.04
72128;DHT22;60000;51.030;7.024;2022-08-01T00:31:01;20.35;84.21
72128;DHT22;60000;51.030;7.024;2022-08-01T00:33:26;20.30;84.23
72128;DHT22;60000;51.030;7.024;2022-08-01T00:35:51;20.30;84.18
72128;DHT22;60000;51.030;7.024;2022-08-01T00:38:17;20.28;84.32
72128;DHT22;60000;51.030;7.024;2022-08-01T00:40:42;20.30;84.30
72128;DHT22;60000;51.030;7.024;2022-08-01T00:43:07;20.30;84.17
72128;DHT22;60000;51.030;7.024;2022-08-01T00:45:33;20.26;84.32
72128;DHT22;60000;51.030;7.024;2022-08-01T00:47:58;20.30;84.36
72128;DHT22;60000;51.030;7.024;2022-08-01T00:50:24;20.22;84.11
72128;DHT22;60000;51.030;7.024;2022-08-01T00:52:50;20.22;83.80
72128;DHT22;60000;51.030;7.024;2022-08-01T00:55:18;20.21;83.45
72128;DHT22;60000;51.030;7.024;2022-08-01T00:57:44;20.22;83.54
72128;DHT22;60000;51.030;7.024;2022-08-01T01:00:10;20.18;83.57
72128;DHT22;60000;51.030;7.024;2022-08-01T01:02:35;20.18;83.53
72128;DHT22;60000;51.030;7.024;2022-08-01T01:05:01;20.14;83.26
72128;DHT22;60000;51.030;7.024;2022-08-01T01:07:43;20.16;83.26
72128;DHT22;60000;51.030;7.024;2022-08-01T01:13:05;20.15;82.99
72128;DHT22;60000;51.030;7.024;2022-08-01T01:15:49;20.14;82.97
72128;DHT22;60000;51.030;7.024;2022-08-01T01:18:45;20.14;82.92
72128;DHT22;60000;51.030;7.024;2022-08-01T01:26:50;20.09;82.66
72128;DHT22;60000;51.030;7.024;2022-08-01T01:29:25;20.11;82.44
72128;DHT22;60000;51.030;7.024;2022-08-01T01:32:02;20.09;82.48
72128;DHT22;60000;51.030;7.024;2022-08-01T01:34:32;20.08;82.59
72128;DHT22;60000;51.030;7.024;2022-08-01T01:37:01;20.05;82.41
72128;DHT22;60000;51.030;7.024;2022-08-01T01:39:28;20.06;82.56
72128;DHT22;60000;51.030;7.024;2022-08-01T01:41:55;20.04;82.58
72128;DHT22;60000;51.030;7.024;2022-08-01T01:44:21;20.04;82.42
72128;DHT22;60000;51.030;7.024;2022-08-01T01:46:48;20.02;82.60
72128;DHT22;60000;51.030;7.024;2022-08-01T01:49:15;20.04;82.42
72128;DHT22;60000;51.030;7.024;2022-08-01T01:51:44;20.02;82.44
72128;DHT22;60000;51.030;7.024;2022-08-01T01:54:11;20.01;82.29
72128;DHT22;60000;51.030;7.024;2022-08-01T01:56:37;20.02;82.11
72128;DHT22;60000;51.030;7.024;2022-08-01T01:59:19;20.01;82.15
72128;DHT22;60000;51.030;7.024;2022-08-01T02:01:47;20.02;82.26
72128;DHT22;60000;51.030;7.024;2022-08-01T02:04:14;20.01;82.22
72128;DHT22;60000;51.030;7.024;2022-08-01T02:06:40;20.01;82.18
72128;DHT22;60000;51.030;7.024;2022-08-01T02:09:07;20.01;82.17
72128;DHT22;60000;51.030;7.024;2022-08-01T02:11:35;19.99;82.28
72128;DHT22;60000;51.030;7.024;2022-08-01T02:14:02;20.04;82.38
72128;DHT22;60000;51.030;7.024;2022-08-01T02:16:34;20.02;82.22
72128;DHT22;60000;51.030;7.024;2022-08-01T02:19:00;20.04;81.93
72128;DHT22;60000;51.030;7.024;2022-08-01T02:22:06;19.99;81.91
72128;DHT22;60000;51.030;7.024;2022-08-01T02:24:48;20.02;81.93
72128;DHT22;60000;51.030;7.024;2022-08-01T02:27:18;20.02;81.97
72128;DHT22;60000;51.030;7.024;2022-08-01T02:29:47;19.99;81.88
72128;DHT22;60000;51.030;7.024;2022-08-01T02:33:05;19.99;82.02
72128;DHT22;60000;51.030;7.024;2022-08-01T02:35:23;20.01;81.97
72128;DHT22;60000;51.030;7.024;2022-08-01T02:37:51;19.99;81.96
72128;DHT22;60000;51.030;7.024;2022-08-01T02:40:17;19.99;81.87
72128;DHT22;60000;51.030;7.024;2022-08-01T02:42:47;20.01;81.99
72128;DHT22;60000;51.030;7.024;2022-08-01T02:45:19;19.99;81.85
72128;DHT22;60000;51.030;7.024;2022-08-01T02:47:46;20.02;81.81
72128;DHT22;60000;51.030;7.024;2022-08-01T02:50:14;20.01;82.05
72128;DHT22;60000;51.030;7.024;2022-08-01T02:52:43;19.99;81.98
72128;DHT22;60000;51.030;7.024;2022-08-01T02:55:11;19.99;81.99
72128;DHT22;60000;51.030;7.024;2022-08-01T02:57:39;19.99;82.01
72128;DHT22;60000;51.030;7.024;2022-08-01T03:00:05;20.01;82.06
72128;DHT22;60000;51.030;7.024;2022-08-01T03:02:32;20.01;82.08
72128;DHT22;60000;51.030;7.024;2022-08-01T03:05:00;19.99;82.16
72128;DHT22;60000;51.030;7.024;2022-08-01T03:07:27;20.01;82.00
72128;DHT22;60000;51.030;7.024;2022-08-01T03:09:55;19.99;82.19
72128;DHT22;60000;51.030;7.024;2022-08-01T03:12:25;19.99;82.28
72128;DHT22;60000;51.030;7.024;2022-08-01T03:14:51;19.96;82.32
72128;DHT22;60000;51.030;7.024;2022-08-01T03:17:21;19.98;82.33
72128;DHT22;60000;51.030;7.024;2022-08-01T03:19:48;19.98;82.35
72128;DHT22;60000;51.030;7.024;2022-08-01T03:22:15;19.94;82.20
72128;DHT22;60000;51.030;7.024;2022-08-01T03:24:42;19.95;82.26
72128;DHT22;60000;51.030;7.024;2022-08-01T03:27:09;19.92;82.26
72128;DHT22;60000;51.030;7.024;2022-08-01T03:29:36;19.92;82.31
72128;DHT22;60000;51.030;7.024;2022-08-01T03:32:03;19.92;82.36
72128;DHT22;60000;51.030;7.024;2022-08-01T03:34:29;19.92;82.36
72128;DHT22;60000;51.030;7.024;2022-08-01T03:37:05;19.92;82.41
72128;DHT22;60000;51.030;7.024;2022-08-01T03:39:34;19.92;82.40
72128;DHT22;60000;51.030;7.024;2022-08-01T03:42:08;19.92;82.41
72128;DHT22;60000;51.030;7.024;2022-08-01T03:44:36;19.94;82.45
72128;DHT22;60000;51.030;7.024;2022-08-01T03:47:06;19.92;82.45
72128;DHT22;60000;51.030;7.024;2022-08-01T03:49:36;19.94;82.38
72128;DHT22;60000;51.030;7.024;2022-08-01T03:52:04;19.91;82.40
72128;DHT22;60000;51.030;7.024;2022-08-01T03:54:35;19.91;82.46
72128;DHT22;60000;51.030;7.024;2022-08-01T03:57:01;19.92;82.33
72128;DHT22;60000;51.030;7.024;2022-08-01T03:59:28;19.92;82.38
72128;DHT22;60000;51.030;7.024;2022-08-01T04:01:54;19.92;82.56
72128;DHT22;60000;51.030;7.024;2022-08-01T04:04:20;19.91;82.69
72128;DHT22;60000;51.030;7.024;2022-08-01T04:06:46;19.94;82.78
72128;DHT22;60000;51.030;7.024;2022-08-01T04:09:15;19.89;82.84
72128;DHT22;60000;51.030;7.024;2022-08-01T04:11:41;19.88;82.64
72128;DHT22;60000;51.030;7.024;2022-08-01T04:14:06;19.91;82.68
72128;DHT22;60000;51.030;7.024;2022-08-01T04:16:32;19.92;82.67
72128;DHT22;60000;51.030;7.024;2022-08-01T04:18:57;19.91;82.77
72128;DHT22;60000;51.030;7.024;2022-08-01T04:21:26;19.94;82.69
72128;DHT22;60000;51.030;7.024;2022-08-01T04:23:58;19.92;82.67
72128;DHT22;60000;51.030;7.024;2022-08-01T04:26:25;19.91;82.67
72128;DHT22;60000;51.030;7.024;2022-08-01T04:28:51;19.92;82.70
72128;DHT22;60000;51.030;7.024;2022-08-01T04:31:17;19.95;82.74
72128;DHT22;60000;51.030;7.024;2022-08-01T04:33:47;19.96;82.82
72128;DHT22;60000;51.030;7.024;2022-08-01T04:36:15;19.96;82.84
72128;DHT22;60000;51.030;7.024;2022-08-01T04:38:45;19.99;82.90
72128;DHT22;60000;51.030;7.024;2022-08-01T04:41:12;19.98;82.94
72128;DHT22;60000;51.030;7.024;2022-08-01T04:43:38;19.98;82.98
72128;DHT22;60000;51.030;7.024;2022-08-01T04:46:03;20.01;83.05
72128;DHT22;60000;51.030;7.024;2022-08-01T04:48:32;20.01;83.10
72128;DHT22;60000;51.030;7.024;2022-08-01T04:50:58;20.01;83.12
72128;DHT22;60000;51.030;7.024;2022-08-01T04:53:24;20.02;83.10
72128;DHT22;60000;51.030;7.024;2022-08-01T04:55:51;20.01;83.12
72128;DHT22;60000;51.030;7.024;2022-08-01T04:58:16;19.99;83.05
72128;DHT22;60000;51.030;7.024;2022-08-01T05:00:42;20.04;83.02
72128;DHT22;60000;51.030;7.024;2022-08-01T05:03:07;20.05;83.12
72128;DHT22;60000;51.030;7.024;2022-08-01T05:05:33;20.09;83.15
72128;DHT22;60000;51.030;7.024;2022-08-01T05:07:58;20.11;83.10
72128;DHT22;60000;51.030;7.024;2022-08-01T05:10:25;20.12;83.04
72128;DHT22;60000;51.030;7.024;2022-08-01T05:12:51;20.11;82.95
72128;DHT22;60000;51.030;7.024;2022-08-01T05:15:17;20.11;83.04
72128;DHT22;60000;51.030;7.024;2022-08-01T05:17:42;20.12;82.93
72128;DHT22;60000;51.030;7.024;2022-08-01T05:20:08;20.14;82.98
72128;DHT22;60000;51.030;7.024;2022-08-01T05:22:33;20.16;83.09
72128;DHT22;60000;51.030;7.024;2022-08-01T05:24:59;20.16;83.07
72128;DHT22;60000;51.030;7.024;2022-08-01T05:27:25;20.21;83.00
72128;DHT22;60000;51.030;7.024;2022-08-01T05:29:51;20.23;82.89
72128;DHT22;60000;51.030;7.024;2022-08-01T05:32:16;20.26;82.71
72128;DHT22;60000;51.030;7.024;2022-08-01T05:34:42;20.32;82.76
72128;DHT22;60000;51.030;7.024;2022-08-01T05:37:07;20.30;82.47
72128;DHT22;60000;51.030;7.024;2022-08-01T05:39:33;20.29;82.56
72128;DHT22;60000;51.030;7.024;2022-08-01T05:41:58;20.29;82.46
72128;DHT22;60000;51.030;7.024;2022-08-01T05:44:23;20.29;82.46
72128;DHT22;60000;51.030;7.024;2022-08-01T05:46:50;20.30;82.36
72128;DHT22;60000;51.030;7.024;2022-08-01T05:49:16;20.29;82.41
72128;DHT22;60000;51.030;7.024;2022-08-01T05:51:41;20.28;82.33
72128;DHT22;60000;51.030;7.024;2022-08-01T05:54:07;20.29;82.28
72128;DHT22;60000;51.030;7.024;2022-08-01T05:56:32;20.33;82.19
72128;DHT22;60000;51.030;7.024;2022-08-01T05:58:58;20.36;82.16
72128;DHT22;60000;51.030;7.024;2022-08-01T06:01:23;20.39;82.15
72128;DHT22;60000;51.030;7.024;2022-08-01T06:03:48;20.43;81.53
72128;DHT22;60000;51.030;7.024;2022-08-01T06:06:14;20.45;81.54
72128;DHT22;60000;51.030;7.024;2022-08-01T06:08:40;20.50;81.56
72128;DHT22;60000;51.030;7.024;2022-08-01T06:11:06;20.59;81.48
72128;DHT22;60000;51.030;7.024;2022-08-01T06:13:31;20.69;81.18
72128;DHT22;60000;51.030;7.024;2022-08-01T06:15:56;20.79;81.08
72128;DHT22;60000;51.030;7.024;2022-08-01T06:18:22;20.87;80.77
72128;DHT22;60000;51.030;7.024;2022-08-01T06:20:48;21.00;80.38
72128;DHT22;60000;51.030;7.024;2022-08-01T06:23:13;21.07;80.02
72128;DHT22;60000;51.030;7.024;2022-08-01T06:25:41;21.27;80.26
72128;DHT22;60000;51.030;7.024;2022-08-01T06:28:07;21.38;79.39
72128;DHT22;60000;51.030;7.024;2022-08-01T06:30:32;21.43;78.35
72128;DHT22;60000;51.030;7.024;2022-08-01T06:32:58;21.48;77.02
72128;DHT22;60000;51.030;7.024;2022-08-01T06:35:27;21.49;77.38
72128;DHT22;60000;51.030;7.024;2022-08-01T06:37:54;21.65;77.54
72128;DHT22;60000;51.030;7.024;2022-08-01T06:40:20;21.78;76.49
72128;DHT22;60000;51.030;7.024;2022-08-01T06:42:45;21.96;75.28
72128;DHT22;60000;51.030;7.024;2022-08-01T06:45:12;22.40;76.00
72128;DHT22;60000;51.030;7.024;2022-08-01T06:47:39;22.73;73.62
72128;DHT22;60000;51.030;7.024;2022-08-01T06:50:06;22.91;71.41
72128;DHT22;60000;51.030;7.024;2022-08-01T06:52:32;23.05;70.76
72128;DHT22;60000;51.030;7.024;2022-08-01T06:54:58;23.16;69.76
72128;DHT22;60000;51.030;7.024;2022-08-01T06:57:24;23.16;69.31
72128;DHT22;60000;51.030;7.024;2022-08-01T06:59:49;23.27;69.90
72128;DHT22;60000;51.030;7.024;2022-08-01T07:02:18;23.24;69.02
72128;DHT22;60000;51.030;7.024;2022-08-01T07:04:43;23.23;69.56
72128;DHT22;60000;51.030;7.024;2022-08-01T07:07:08;23.31;68.83
72128;DHT22;60000;51.030;7.024;2022-08-01T07:09:34;23.31;68.61
72128;DHT22;60000;51.030;7.024;2022-08-01T07:12:00;23.23;69.77
72128;DHT22;60000;51.030;7.024;2022-08-01T07:14:25;23.31;69.73
72128;DHT22;60000;51.030;7.024;2022-08-01T07:16:51;23.34;69.05
72128;DHT22;60000;51.030;7.024;2022-08-01T07:19:17;23.34;68.98
72128;DHT22;60000;51.030;7.024;2022-08-01T07:21:42;23.22;68.35
72128;DHT22;60000;51.030;7.024;2022-08-01T07:24:10;23.15;68.71
72128;DHT22;60000;51.030;7.024;2022-08-01T07:26:36;22.98;69.00
72128;DHT22;60000;51.030;7.024;2022-08-01T07:29:01;22.82;69.55
72128;DHT22;60000;51.030;7.024;2022-08-01T07:31:28;22.71;69.13
72128;DHT22;60000;51.030;7.024;2022-08-01T07:33:53;22.76;70.23
72128;DHT22;60000;51.030;7.024;2022-08-01T07:36:18;22.94;70.58
72128;DHT22;60000;51.030;7.024;2022-08-01T07:38:44;23.06;69.76
72128;DHT22;60000;51.030;7.024;2022-08-01T07:41:10;23.18;69.52
72128;DHT22;60000;51.030;7.024;2022-08-01T07:43:36;23.19;68.09
72128;DHT22;60000;51.030;7.024;2022-08-01T07:46:04;23.36;68.68
72128;DHT22;60000;51.030;7.024;2022-08-01T07:48:30;23.53;68.59
72128;DHT22;60000;51.030;7.024;2022-08-01T07:50:55;23.54;67.66
72128;DHT22;60000;51.030;7.024;2022-08-01T07:53:21;23.50;66.87
72128;DHT22;60000;51.030;7.024;2022-08-01T07:55:46;23.56;67.52
72128;DHT22;60000;51.030;7.024;2022-08-01T07:58:12;23.64;66.13
72128;DHT22;60000;51.030;7.024;2022-08-01T08:00:38;23.57;66.07
72128;DHT22;60000;51.030;7.024;2022-08-01T08:03:03;23.64;66.10
72128;DHT22;60000;51.030;7.024;2022-08-01T08:05:29;23.67;66.14
72128;DHT22;60000;51.030;7.024;2022-08-01T08:07:54;23.60;65.96
72128;DHT22;60000;51.030;7.024;2022-08-01T08:10:20;23.61;65.54
72128;DHT22;60000;51.030;7.024;2022-08-01T08:12:46;23.73;66.01
72128;DHT22;60000;51.030;7.024;2022-08-01T08:15:12;23.67;65.40
72128;DHT22;60000;51.030;7.024;2022-08-01T08:17:38;24.19;67.70
72128;DHT22;60000;51.030;7.024;2022-08-01T08:20:06;24.86;64.17
72128;DHT22;60000;51.030;7.024;2022-08-01T08:22:31;25.55;61.91
72128;DHT22;60000;51.030;7.024;2022-08-01T08:24:57;25.85;61.20
72128;DHT22;60000;51.030;7.024;2022-08-01T08:27:22;25.83;59.45
72128;DHT22;60000;51.030;7.024;2022-08-01T08:29:48;26.33;59.10
72128;DHT22;60000;51.030;7.024;2022-08-01T08:32:13;26.47;57.72
72128;DHT22;60000;51.030;7.024;2022-08-01T08:34:39;26.64;56.55
72128;DHT22;60000;51.030;7.024;2022-08-01T08:37:07;26.78;55.23
72128;DHT22;60000;51.030;7.024;2022-08-01T08:39:33;26.75;56.02
72128;DHT22;60000;51.030;7.024;2022-08-01T08:42:06;26.78;55.02
72128;DHT22;60000;51.030;7.024;2022-08-01T08:44:31;26.74;55.26
72128;DHT22;60000;51.030;7.024;2022-08-01T08:46:58;26.41;55.34
72128;DHT22;60000;51.030;7.024;2022-08-01T08:49:27;26.27;55.66
72128;DHT22;60000;51.030;7.024;2022-08-01T08:51:53;26.00;55.70
72128;DHT22;60000;51.030;7.024;2022-08-01T08:54:23;25.97;56.93
72128;DHT22;60000;51.030;7.024;2022-08-01T08:56:50;25.99;56.53
72128;DHT22;60000;51.030;7.024;2022-08-01T08:59:16;25.86;55.96
72128;DHT22;60000;51.030;7.024;2022-08-01T09:01:42;25.81;57.35
72128;DHT22;60000;51.030;7.024;2022-08-01T09:04:08;25.85;57.84
72128;DHT22;60000;51.030;7.024;2022-08-01T09:06:34;25.73;56.24
72128;DHT22;60000;51.030;7.024;2022-08-01T09:09:00;25.79;56.30
72128;DHT22;60000;51.030;7.024;2022-08-01T09:11:25;25.68;56.14
72128;DHT22;60000;51.030;7.024;2022-08-01T09:14:13;25.65;57.51
72128;DHT22;60000;51.030;7.024;2022-08-01T09:16:44;25.57;56.28
72128;DHT22;60000;51.030;7.024;2022-08-01T09:19:12;25.37;56.96
72128;DHT22;60000;51.030;7.024;2022-08-01T09:21:39;25.28;57.96
72128;DHT22;60000;51.030;7.024;2022-08-01T09:24:14;25.18;57.86
72128;DHT22;60000;51.030;7.024;2022-08-01T09:26:40;25.35;58.43
72128;DHT22;60000;51.030;7.024;2022-08-01T09:29:07;25.33;58.33
72128;DHT22;60000;51.030;7.024;2022-08-01T09:31:41;25.61;56.69
72128;DHT22;60000;51.030;7.024;2022-08-01T09:34:09;25.99;57.75
72128;DHT22;60000;51.030;7.024;2022-08-01T09:36:55;25.93;56.38
72128;DHT22;60000;51.030;7.024;2022-08-01T09:39:23;25.85;56.96
72128;DHT22;60000;51.030;7.024;2022-08-01T09:41:49;25.79;56.51
72128;DHT22;60000;51.030;7.024;2022-08-01T09:44:16;25.64;55.91
72128;DHT22;60000;51.030;7.024;2022-08-01T09:46:54;25.71;55.96
72128;DHT22;60000;51.030;7.024;2022-08-01T09:49:52;26.19;55.97
72128;DHT22;60000;51.030;7.024;2022-08-01T09:52:20;26.51;54.95
72128;DHT22;60000;51.030;7.024;2022-08-01T09:54:56;26.74;54.40
72128;DHT22;60000;51.030;7.024;2022-08-01T09:57:21;26.74;53.95
72128;DHT22;60000;51.030;7.024;2022-08-01T09:59:50;27.16;53.89
72128;DHT22;60000;51.030;7.024;2022-08-01T10:04:57;27.42;52.15
72128;DHT22;60000;51.030;7.024;2022-08-01T10:07:22;27.08;51.36
72128;DHT22;60000;51.030;7.024;2022-08-01T10:09:48;27.21;52.94
72128;DHT22;60000;51.030;7.024;2022-08-01T10:12:16;27.02;52.36
72128;DHT22;60000;51.030;7.024;2022-08-01T10:14:44;26.75;53.22
72128;DHT22;60000;51.030;7.024;2022-08-01T10:17:16;26.74;53.33
72128;DHT22;60000;51.030;7.024;2022-08-01T10:19:42;26.62;52.45
72128;DHT22;60000;51.030;7.024;2022-08-01T10:22:10;26.51;54.39
72128;DHT22;60000;51.030;7.024;2022-08-01T10:24:40;26.45;53.82
72128;DHT22;60000;51.030;7.024;2022-08-01T10:27:07;26.54;54.47
72128;DHT22;60000;51.030;7.024;2022-08-01T10:29:57;26.77;54.14
72128;DHT22;60000;51.030;7.024;2022-08-01T10:32:22;26.99;54.14
72128;DHT22;60000;51.030;7.024;2022-08-01T10:34:49;27.15;54.33
72128;DHT22;60000;51.030;7.024;2022-08-01T10:37:15;27.61;53.50
72128;DHT22;60000;51.030;7.024;2022-08-01T10:39:43;27.64;51.92
72128;DHT22;60000;51.030;7.024;2022-08-01T10:42:10;27.77;50.46
72128;DHT22;60000;51.030;7.024;2022-08-01T10:44:37;27.87;50.50
72128;DHT22;60000;51.030;7.024;2022-08-01T10:47:08;27.66;49.87
72128;DHT22;60000;51.030;7.024;2022-08-01T10:49:39;27.70;48.62
72128;DHT22;60000;51.030;7.024;2022-08-01T10:52:05;27.66;48.04
72128;DHT22;60000;51.030;7.024;2022-08-01T10:54:38;27.76;49.27
72128;DHT22;60000;51.030;7.024;2022-08-01T10:57:03;28.12;47.66
72128;DHT22;60000;51.030;7.024;2022-08-01T10:59:30;28.66;48.64
72128;DHT22;60000;51.030;7.024;2022-08-01T11:02:00;28.69;46.96
72128;DHT22;60000;51.030;7.024;2022-08-01T11:04:54;28.83;47.63
72128;DHT22;60000;51.030;7.024;2022-08-01T11:07:42;28.73;46.40
72128;DHT22;60000;51.030;7.024;2022-08-01T11:10:19;28.65;46.74
72128;DHT22;60000;51.030;7.024;2022-08-01T11:12:47;28.45;46.79
72128;DHT22;60000;51.030;7.024;2022-08-01T11:17:44;28.75;46.76
72128;DHT22;60000;51.030;7.024;2022-08-01T11:20:17;29.30;46.48
72128;DHT22;60000;51.030;7.024;2022-08-01T11:25:25;28.99;44.15
72128;DHT22;60000;51.030;7.024;2022-08-01T11:38:46;28.24;47.19
72128;DHT22;60000;51.030;7.024;2022-08-01T11:44:07;28.63;47.38
72128;DHT22;60000;51.030;7.024;2022-08-01T11:52:15;30.01;42.03
72128;DHT22;60000;51.030;7.024;2022-08-01T11:57:12;30.32;42.11
72128;DHT22;60000;51.030;7.024;2022-08-01T11:59:43;30.53;40.21
72128;DHT22;60000;51.030;7.024;2022-08-01T12:02:27;30.61;41.10
72128;DHT22;60000;51.030;7.024;2022-08-01T12:05:04;30.52;41.09
72128;DHT22;60000;51.030;7.024;2022-08-01T12:07:34;29.89;40.17
72128;DHT22;60000;51.030;7.024;2022-08-01T12:10:04;29.45;41.57
72128;DHT22;60000;51.030;7.024;2022-08-01T12:12:31;29.18;43.41
72128;DHT22;60000;51.030;7.024;2022-08-01T12:15:00;29.16;44.03
72128;DHT22;60000;51.030;7.024;2022-08-01T12:19:58;29.75;42.20
72128;DHT22;60000;51.030;7.024;2022-08-01T12:22:25;29.82;41.25
72128;DHT22;60000;51.030;7.024;2022-08-01T12:24:50;29.86;41.65
72128;DHT22;60000;51.030;7.024;2022-08-01T12:27:30;29.84;41.86
72128;DHT22;60000;51.030;7.024;2022-08-01T12:29:57;29.67;40.66
72128;DHT22;60000;51.030;7.024;2022-08-01T12:32:33;29.71;41.98
72128;DHT22;60000;51.030;7.024;2022-08-01T12:37:30;30.05;40.66
72128;DHT22;60000;51.030;7.024;2022-08-01T12:39:56;30.20;40.67
72128;DHT22;60000;51.030;7.024;2022-08-01T12:42:22;30.15;39.79
72128;DHT22;60000;51.030;7.024;2022-08-01T12:44:50;30.22;40.17
72128;DHT22;60000;51.030;7.024;2022-08-01T12:47:17;30.17;40.30
72128;DHT22;60000;51.030;7.024;2022-08-01T12:49:44;30.05;40.06
72128;DHT22;60000;51.030;7.024;2022-08-01T12:52:10;30.04;39.91
72128;DHT22;60000;51.030;7.024;2022-08-01T12:55:27;30.19;39.64
72128;DHT22;60000;51.030;7.024;2022-08-01T12:57:48;30.09;40.32
72128;DHT22;60000;51.030;7.024;2022-08-01T13:02:46;29.33;39.35
72128;DHT22;60000;51.030;7.024;2022-08-01T13:05:13;29.30;41.38
72128;DHT22;60000;51.030;7.024;2022-08-01T13:10:06;29.08;41.58
72128;DHT22;60000;51.030;7.024;2022-08-01T13:12:32;29.14;39.95
72128;DHT22;60000;51.030;7.024;2022-08-01T13:14:57;29.11;39.70
72128;DHT22;60000;51.030;7.024;2022-08-01T13:17:30;29.24;40.73
72128;DHT22;60000;51.030;7.024;2022-08-01T13:19:56;29.41;40.66
72128;DHT22;60000;51.030;7.024;2022-08-01T13:22:31;29.43;39.92
72128;DHT22;60000;51.030;7.024;2022-08-01T13:25:11;29.21;39.35
72128;DHT22;60000;51.030;7.024;2022-08-01T13:27:36;28.90;37.88
72128;DHT22;60000;51.030;7.024;2022-08-01T13:30:16;28.79;39.68
72128;DHT22;60000;51.030;7.024;2022-08-01T13:32:42;28.77;40.19
72128;DHT22;60000;51.030;7.024;2022-08-01T13:35:10;28.97;39.54
72128;DHT22;60000;51.030;7.024;2022-08-01T13:37:38;28.93;39.62
72128;DHT22;60000;51.030;7.024;2022-08-01T13:40:04;28.90;40.45
72128;DHT22;60000;51.030;7.024;2022-08-01T13:42:29;28.93;40.43
72128;DHT22;60000;51.030;7.024;2022-08-01T13:44:55;28.95;40.29
72128;DHT22;60000;51.030;7.024;2022-08-01T13:47:20;29.30;40.92
72128;DHT22;60000;51.030;7.024;2022-08-01T13:49:45;29.45;40.33
72128;DHT22;60000;51.030;7.024;2022-08-01T13:52:11;29.54;39.78
72128;DHT22;60000;51.030;7.024;2022-08-01T13:54:36;29.41;39.47
72128;DHT22;60000;51.030;7.024;2022-08-01T13:57:02;29.47;39.74
72128;DHT22;60000;51.030;7.024;2022-08-01T13:59:27;29.41;39.50
72128;DHT22;60000;51.030;7.024;2022-08-01T14:01:53;29.27;38.98
72128;DHT22;60000;51.030;7.024;2022-08-01T14:04:18;28.95;39.67
72128;DHT22;60000;51.030;7.024;2022-08-01T14:06:44;28.89;40.34
72128;DHT22;60000;51.030;7.024;2022-08-01T14:09:09;28.96;40.43
72128;DHT22;60000;51.030;7.024;2022-08-01T14:11:35;28.86;39.86
72128;DHT22;60000;51.030;7.024;2022-08-01T14:14:00;28.89;40.08
72128;DHT22;60000;51.030;7.024;2022-08-01T14:16:25;28.83;39.78
72128;DHT22;60000;51.030;7.024;2022-08-01T14:18:51;28.82;39.95
72128;DHT22;60000;51.030;7.024;2022-08-01T14:21:16;28.72;38.90
72128;DHT22;60000;51.030;7.024;2022-08-01T14:23:42;28.69;39.78
72128;DHT22;60000;51.030;7.024;2022-08-01T14:26:08;28.60;39.15
72128;DHT22;60000;51.030;7.024;2022-08-01T14:28:34;28.66;40.81
72128;DHT22;60000;51.030;7.024;2022-08-01T14:30:59;28.76;39.90
72128;DHT22;60000;51.030;7.024;2022-08-01T14:33:25;28.60;40.47
72128;DHT22;60000;51.030;7.024;2022-08-01T14:35:51;28.72;39.97
72128;DHT22;60000;51.030;7.024;2022-08-01T14:38:16;28.69;42.28
72128;DHT22;60000;51.030;7.024;2022-08-01T14:40:42;28.53;42.13
72128;DHT22;60000;51.030;7.024;2022-08-01T14:43:07;28.25;42.88
72128;DHT22;60000;51.030;7.024;2022-08-01T14:45:33;28.19;44.21
72128;DHT22;60000;51.030;7.024;2022-08-01T14:47:59;28.34;44.18
72128;DHT22;60000;51.030;7.024;2022-08-01T14:50:25;28.56;43.23
72128;DHT22;60000;51.030;7.024;2022-08-01T14:52:53;28.56;42.93
72128;DHT22;60000;51.030;7.024;2022-08-01T14:55:18;28.62;41.71
72128;DHT22;60000;51.030;7.024;2022-08-01T14:57:48;28.53;41.31
72128;DHT22;60000;51.030;7.024;2022-08-01T15:00:14;28.53;41.11
72128;DHT22;60000;51.030;7.024;2022-08-01T15:02:40;28.56;41.38
72128;DHT22;60000;51.030;7.024;2022-08-01T15:05:07;28.63;40.98
72128;DHT22;60000;51.030;7.024;2022-08-01T15:07:32;28.55;40.30
72128;DHT22;60000;51.030;7.024;2022-08-01T15:09:58;28.45;41.14
72128;DHT22;60000;51.030;7.024;2022-08-01T15:12:23;28.49;40.83
72128;DHT22;60000;51.030;7.024;2022-08-01T15:14:49;28.37;42.42
72128;DHT22;60000;51.030;7.024;2022-08-01T15:17:25;28.19;43.53
72128;DHT22;60000;51.030;7.024;2022-08-01T15:19:53;27.80;44.18
72128;DHT22;60000;51.030;7.024;2022-08-01T15:22:20;27.80;45.11
72128;DHT22;60000;51.030;7.024;2022-08-01T15:24:47;27.64;45.86
72128;DHT22;60000;51.030;7.024;2022-08-01T15:27:12;27.73;46.40
72128;DHT22;60000;51.030;7.024;2022-08-01T15:29:38;27.79;46.42
72128;DHT22;60000;51.030;7.024;2022-08-01T15:32:04;27.79;46.00
72128;DHT22;60000;51.030;7.024;2022-08-01T15:34:32;27.71;45.40
72128;DHT22;60000;51.030;7.024;2022-08-01T15:36:57;27.46;45.61
72128;DHT22;60000;51.030;7.024;2022-08-01T15:39:23;27.18;46.50
72128;DHT22;60000;51.030;7.024;2022-08-01T15:41:49;26.98;46.79
72128;DHT22;60000;51.030;7.024;2022-08-01T15:44:14;26.80;47.43
72128;DHT22;60000;51.030;7.024;2022-08-01T15:46:40;26.70;47.72
72128;DHT22;60000;51.030;7.024;2022-08-01T15:49:06;26.54;48.46
72128;DHT22;60000;51.030;7.024;2022-08-01T15:51:32;26.47;48.91
72128;DHT22;60000;51.030;7.024;2022-08-01T15:53:58;26.53;48.75
72128;DHT22;60000;51.030;7.024;2022-08-01T15:56:28;26.54;47.45
72128;DHT22;60000;51.030;7.024;2022-08-01T15:58:54;26.72;48.90
72128;DHT22;60000;51.030;7.024;2022-08-01T16:01:19;26.87;48.01
72128;DHT22;60000;51.030;7.024;2022-08-01T16:03:46;26.85;48.14
72128;DHT22;60000;51.030;7.024;2022-08-01T16:06:11;26.96;48.73
72128;DHT22;60000;51.030;7.024;2022-08-01T16:08:36;27.08;48.65
72128;DHT22;60000;51.030;7.024;2022-08-01T16:11:02;27.11;47.89
72128;DHT22;60000;51.030;7.024;2022-08-01T16:13:27;27.19;47.87
72128;DHT22;60000;51.030;7.024;2022-08-01T16:15:53;27.38;47.65
72128;DHT22;60000;51.030;7.024;2022-08-01T16:18:18;27.50;46.96
72128;DHT22;60000;51.030;7.024;2022-08-01T16:20:44;27.60;46.66
72128;DHT22;60000;51.030;7.024;2022-08-01T16:23:09;27.63;46.48